Relevés horaires Eggishorn (Suisse)


Relevés horaires à Eggishorn - Vendredi 30 Août 2019
Heure UTC1 Température [°C] Vent [km/h] Hum. [%] Pres.4 [hPa] Visi. [Km] Nébu. [octa] Préc.5 [mm] Cond.
2m. Res. Ros. Dir.2 Vit. Moy. Raf.3
23:00 7.3 6.5 6.3 ONO 5.6 -- 7.4 93 700(-0.6/3h) -- -- -- --
22:00 7.7 7.7 6.3 SSE 3.7 -- 5.6 91 700(-0.2/3h) -- -- -- --
21:00 8.1 8.1 5.9 OSO 3.7 -- 11.1 86 700(0.2/3h) -- -- -- --
20:00 9.0 8.4 6.3 ONO 5.6 -- 11.1 83 700(0.4/3h) -- -- -- --
19:00 8.9 8.3 6.2 NNO 5.6 -- 11.1 83 700(0.4/3h) -- -- -- --
18:00 8.9 8.3 5.5 ESE 5.6 -- 22.2 79 700(-0.1/3h) -- -- -- --
17:00 9.8 9.8 4.2 ESE 3.7 -- 13.0 68 700(-0.3/3h) -- -- -- --
16:00 10.3 9.9 3.6 ESE 5.6 -- 14.8 63 700(-0.7/3h) -- -- -- --
15:00 11.6 11.6 2.7 S 3.7 -- 22.2 54 700(-0.8/3h) -- -- -- --
14:00 10.8 9.7 2.9 SSE 9.3 -- 18.5 58 700(-0.7/3h) -- -- -- --
13:00 11.3 11.1 2.9 SSO 5.6 -- 22.2 56 700(-0.3/3h) -- -- -- --
12:00 11.4 11.4 2.6 S 3.7 -- 22.2 55 700(0.0/3h) -- -- -- --
11:00 12.1 12 3.5 SE 5.6 -- 22.2 56 700(0.4/3h) -- -- -- --
10:00 10.8 10.5 5.4 SE 5.6 -- 22.2 69 700(0.5/3h) -- -- -- --
09:00 10.2 9.8 5.7 ESE 5.6 -- 13.0 74 700(0.6/3h) -- -- -- --
08:00 9.4 8.9 6.2 ESE 5.6 -- 11.1 80 700(0.5/3h) -- -- -- --
07:00 8.3 7.6 4.5 E 5.6 -- 7.4 77 700(0.7/3h) -- -- -- --
06:00 7.8 7.8 2.7 E 3.7 -- 14.8 70 700(0.7/3h) -- -- -- --
05:00 7.1 5.7 1.5 NE 7.4 -- 13.0 67 700(0.2/3h) -- -- -- --
04:00 7.3 6 -0.6 NNO 7.4 -- 14.8 57 700(-0.4/3h) -- -- -- --
03:00 7.1 4.6 0.2 NNO 13.0 -- 13.0 61 700(-0.7/3h) -- -- -- --
02:00 6.9 6 1.8 NO 5.6 -- 13.0 70 700(-0.7/3h) -- -- -- --
01:00 6.8 5 4.4 NO 9.3 -- 13.0 85 700(-0.6/3h) -- -- -- --
00:00 7.0 4.8 5.5 ONO 11.1 -- 13.0 90 700(-0.1/3h) -- -- -- --

1 Coordinated Universal Time. Actuellement il est 00:00 locale et 22:00 UTC.

2 Le vent souffle depuis la direction indiquée vers la direction oposée.

3 Les rafales max. sont disponible 40 min après l'heure du relevé.

4 Pour les stations d'altitude (plus de 600m) le géopotentiel du niveau le plus proche de la pression obligatoire est indiqué.

5 Les stations disposant d'un diffuseur peuvent indiquer "trace". Cela signifie que des précipitations ont touchés le sol mais que la quantité est inférieure à 0.1 mm.

Copyright

Les données affichées sur cette page sont la propriété exclusive de Météo Suisse.

Récapitulatif de la journée
Température [°C] Vent [km/h] Ensoleillement4 [h] Precipitations totale5 [mm] Pression [Hpa]
Min1 Max.2 Moy.3 Max. Min Max.
6.5 12.1 0 22.2 7 h 42 min 0 700.0 700.0

1 Température minimale relevée entre 18:00 UTC la veille et 18:00 UTC le jour donné.

2 Température maximale relevée entre 06:00 UTC le jour donné et 06:00 UTC le lendemain.

3 Vent moyen de la journée basé sur les relevés horaires.

4 Ensoleillement en heures relevé entre 06:00 UTC la veille et 06:00 UTC le jour donné.

5 Précipitations totales tombées entre 06:00 UTC la jour donné et 06:00 UTC le lendemain.

Graphiques horaires